sensor_id;sensor_type;location;lat;lon;timestamp;pressure;altitude;pressure_sealevel;temperature;humidity
14120;BME280;7138;49.246;9.100;2022-07-23T00:00:31;98561.50;;;26.46;76.20
14120;BME280;7138;49.246;9.100;2022-07-23T00:02:57;98578.16;;;26.48;76.94
14120;BME280;7138;49.246;9.100;2022-07-23T00:05:23;98577.63;;;26.43;77.29
14120;BME280;7138;49.246;9.100;2022-07-23T00:07:49;98577.53;;;26.44;76.60
14120;BME280;7138;49.246;9.100;2022-07-23T00:10:15;98573.06;;;26.45;77.55
14120;BME280;7138;49.246;9.100;2022-07-23T00:12:43;98570.81;;;26.39;77.44
14120;BME280;7138;49.246;9.100;2022-07-23T00:15:09;98574.66;;;26.35;77.48
14120;BME280;7138;49.246;9.100;2022-07-23T00:17:36;98569.09;;;26.25;77.46
14120;BME280;7138;49.246;9.100;2022-07-23T00:20:02;98557.19;;;26.18;77.53
14120;BME280;7138;49.246;9.100;2022-07-23T00:22:28;98554.25;;;26.08;77.83
14120;BME280;7138;49.246;9.100;2022-07-23T00:24:55;98552.59;;;26.07;78.14
14120;BME280;7138;49.246;9.100;2022-07-23T00:27:21;98558.41;;;26.13;77.89
14120;BME280;7138;49.246;9.100;2022-07-23T00:29:48;98559.34;;;26.12;78.25
14120;BME280;7138;49.246;9.100;2022-07-23T00:32:15;98553.31;;;26.09;78.18
14120;BME280;7138;49.246;9.100;2022-07-23T00:34:41;98555.88;;;26.11;77.91
14120;BME280;7138;49.246;9.100;2022-07-23T00:37:07;98561.28;;;26.09;77.69
14120;BME280;7138;49.246;9.100;2022-07-23T00:39:33;98556.63;;;26.13;77.46
14120;BME280;7138;49.246;9.100;2022-07-23T00:41:59;98561.06;;;26.13;77.96
14120;BME280;7138;49.246;9.100;2022-07-23T00:44:27;98549.81;;;26.09;78.38
14120;BME280;7138;49.246;9.100;2022-07-23T00:46:57;98546.44;;;26.07;77.57
14120;BME280;7138;49.246;9.100;2022-07-23T00:49:27;98538.47;;;26.07;77.71
14120;BME280;7138;49.246;9.100;2022-07-23T00:51:54;98542.06;;;26.06;77.34
14120;BME280;7138;49.246;9.100;2022-07-23T00:54:22;98550.13;;;26.04;77.66
14120;BME280;7138;49.246;9.100;2022-07-23T00:56:49;98541.63;;;25.99;77.42
14120;BME280;7138;49.246;9.100;2022-07-23T00:59:15;98539.06;;;25.98;77.74
14120;BME280;7138;49.246;9.100;2022-07-23T01:01:41;98541.81;;;25.96;78.09
14120;BME280;7138;49.246;9.100;2022-07-23T01:04:10;98545.53;;;25.94;78.24
14120;BME280;7138;49.246;9.100;2022-07-23T01:06:38;98529.03;;;25.76;78.34
14120;BME280;7138;49.246;9.100;2022-07-23T01:09:05;98551.34;;;25.86;79.21
14120;BME280;7138;49.246;9.100;2022-07-23T01:11:32;98542.81;;;25.81;78.06
14120;BME280;7138;49.246;9.100;2022-07-23T01:13:58;98547.91;;;25.84;78.86
14120;BME280;7138;49.246;9.100;2022-07-23T01:16:24;98547.91;;;25.84;77.96
14120;BME280;7138;49.246;9.100;2022-07-23T01:18:50;98552.28;;;25.85;78.42
14120;BME280;7138;49.246;9.100;2022-07-23T01:21:18;98534.13;;;25.79;77.64
14120;BME280;7138;49.246;9.100;2022-07-23T01:23:45;98526.91;;;25.81;77.38
14120;BME280;7138;49.246;9.100;2022-07-23T01:26:11;98527.97;;;25.79;76.66
14120;BME280;7138;49.246;9.100;2022-07-23T01:28:37;98520.72;;;25.68;76.45
14120;BME280;7138;49.246;9.100;2022-07-23T01:31:03;98512.13;;;25.65;77.25
14120;BME280;7138;49.246;9.100;2022-07-23T01:33:29;98512.00;;;25.66;76.95
14120;BME280;7138;49.246;9.100;2022-07-23T01:35:55;98509.47;;;25.65;77.38
14120;BME280;7138;49.246;9.100;2022-07-23T01:38:21;98514.84;;;25.63;77.58
14120;BME280;7138;49.246;9.100;2022-07-23T01:40:49;98519.41;;;25.61;78.14
14120;BME280;7138;49.246;9.100;2022-07-23T01:43:14;98520.34;;;25.60;77.86
14120;BME280;7138;49.246;9.100;2022-07-23T01:45:40;98529.28;;;25.59;78.30
14120;BME280;7138;49.246;9.100;2022-07-23T01:48:07;98538.91;;;25.60;78.10
14120;BME280;7138;49.246;9.100;2022-07-23T01:50:33;98542.59;;;25.58;78.32
14120;BME280;7138;49.246;9.100;2022-07-23T01:52:59;98542.25;;;25.49;78.25
14120;BME280;7138;49.246;9.100;2022-07-23T01:55:25;98547.31;;;25.38;78.74
14120;BME280;7138;49.246;9.100;2022-07-23T01:57:52;98544.22;;;25.32;79.43
14120;BME280;7138;49.246;9.100;2022-07-23T02:00:18;98529.13;;;25.20;79.09
14120;BME280;7138;49.246;9.100;2022-07-23T02:02:44;98538.19;;;25.16;79.47
14120;BME280;7138;49.246;9.100;2022-07-23T02:05:10;98528.84;;;25.10;79.37
14120;BME280;7138;49.246;9.100;2022-07-23T02:07:36;98517.66;;;25.05;80.06
14120;BME280;7138;49.246;9.100;2022-07-23T02:10:03;98517.09;;;25.00;80.27
14120;BME280;7138;49.246;9.100;2022-07-23T02:12:29;98515.50;;;24.97;80.92
14120;BME280;7138;49.246;9.100;2022-07-23T02:14:56;98522.97;;;24.91;80.93
14120;BME280;7138;49.246;9.100;2022-07-23T02:17:22;98520.44;;;24.89;81.43
14120;BME280;7138;49.246;9.100;2022-07-23T02:19:48;98520.63;;;24.86;80.90
14120;BME280;7138;49.246;9.100;2022-07-23T02:22:13;98528.44;;;24.88;81.23
14120;BME280;7138;49.246;9.100;2022-07-23T02:24:39;98533.47;;;24.92;81.20
14120;BME280;7138;49.246;9.100;2022-07-23T02:27:05;98529.78;;;24.95;81.15
14120;BME280;7138;49.246;9.100;2022-07-23T02:29:31;98541.97;;;24.97;80.73
14120;BME280;7138;49.246;9.100;2022-07-23T02:31:58;98548.38;;;24.93;80.82
14120;BME280;7138;49.246;9.100;2022-07-23T02:34:24;98560.50;;;24.97;80.90
14120;BME280;7138;49.246;9.100;2022-07-23T02:36:50;98560.50;;;24.97;80.91
14120;BME280;7138;49.246;9.100;2022-07-23T02:39:16;98560.50;;;24.97;80.76
14120;BME280;7138;49.246;9.100;2022-07-23T02:41:42;98564.94;;;24.97;80.80
14120;BME280;7138;49.246;9.100;2022-07-23T02:44:07;98578.09;;;24.98;81.41
14120;BME280;7138;49.246;9.100;2022-07-23T02:46:33;98580.81;;;24.97;81.45
14120;BME280;7138;49.246;9.100;2022-07-23T02:49:00;98579.66;;;24.87;81.40
14120;BME280;7138;49.246;9.100;2022-07-23T02:51:26;98577.44;;;24.79;81.90
14120;BME280;7138;49.246;9.100;2022-07-23T02:53:52;98579.91;;;24.68;82.63
14120;BME280;7138;49.246;9.100;2022-07-23T02:56:18;98584.50;;;24.65;82.57
14120;BME280;7138;49.246;9.100;2022-07-23T02:58:44;98581.75;;;24.66;82.38
14120;BME280;7138;49.246;9.100;2022-07-23T03:01:09;98588.19;;;24.62;83.11
14120;BME280;7138;49.246;9.100;2022-07-23T03:03:35;98590.91;;;24.61;83.17
14120;BME280;7138;49.246;9.100;2022-07-23T03:06:03;98595.34;;;24.60;83.26
14120;BME280;7138;49.246;9.100;2022-07-23T03:08:29;98592.03;;;24.57;83.33
14120;BME280;7138;49.246;9.100;2022-07-23T03:10:55;98587.22;;;24.49;83.58
14120;BME280;7138;49.246;9.100;2022-07-23T03:13:20;98593.28;;;24.35;84.22
14120;BME280;7138;49.246;9.100;2022-07-23T03:15:47;98597.59;;;24.22;84.74
14120;BME280;7138;49.246;9.100;2022-07-23T03:18:13;98598.25;;;24.10;85.44
14120;BME280;7138;49.246;9.100;2022-07-23T03:20:38;98612.25;;;23.97;86.10
14120;BME280;7138;49.246;9.100;2022-07-23T03:23:06;98612.69;;;23.89;86.49
14120;BME280;7138;49.246;9.100;2022-07-23T03:25:32;98610.69;;;23.92;86.57
14120;BME280;7138;49.246;9.100;2022-07-23T03:27:58;98607.81;;;23.97;86.34
14120;BME280;7138;49.246;9.100;2022-07-23T03:30:23;98613.16;;;23.95;86.29
14120;BME280;7138;49.246;9.100;2022-07-23T03:32:49;98607.63;;;24.00;86.13
14120;BME280;7138;49.246;9.100;2022-07-23T03:35:15;98606.59;;;24.03;85.74
14120;BME280;7138;49.246;9.100;2022-07-23T03:37:41;98603.91;;;24.04;85.45
14120;BME280;7138;49.246;9.100;2022-07-23T03:40:10;98613.44;;;24.07;85.97
14120;BME280;7138;49.246;9.100;2022-07-23T03:42:36;98621.13;;;24.11;85.20
14120;BME280;7138;49.246;9.100;2022-07-23T03:45:04;98627.41;;;24.09;85.49
14120;BME280;7138;49.246;9.100;2022-07-23T03:47:30;98631.06;;;24.06;85.72
14120;BME280;7138;49.246;9.100;2022-07-23T03:49:56;98624.41;;;23.99;86.16
14120;BME280;7138;49.246;9.100;2022-07-23T03:52:22;98627.69;;;23.88;85.89
14120;BME280;7138;49.246;9.100;2022-07-23T03:54:48;98636.88;;;23.81;85.92
14120;BME280;7138;49.246;9.100;2022-07-23T03:57:15;98635.31;;;23.77;85.97
14120;BME280;7138;49.246;9.100;2022-07-23T03:59:41;98647.34;;;23.67;86.12
14120;BME280;7138;49.246;9.100;2022-07-23T04:02:07;98650.22;;;23.63;86.15
14120;BME280;7138;49.246;9.100;2022-07-23T04:04:33;98647.16;;;23.55;86.38
14120;BME280;7138;49.246;9.100;2022-07-23T04:06:59;98642.19;;;23.49;86.53
14120;BME280;7138;49.246;9.100;2022-07-23T04:09:25;98644.53;;;23.37;86.81
14120;BME280;7138;49.246;9.100;2022-07-23T04:11:50;98637.50;;;23.21;86.70
14120;BME280;7138;49.246;9.100;2022-07-23T04:14:18;98632.31;;;23.02;87.42
14120;BME280;7138;49.246;9.100;2022-07-23T04:16:44;98637.91;;;22.96;87.26
14120;BME280;7138;49.246;9.100;2022-07-23T04:19:10;98646.16;;;22.90;87.74
14120;BME280;7138;49.246;9.100;2022-07-23T04:21:36;98644.38;;;22.91;87.56
14120;BME280;7138;49.246;9.100;2022-07-23T04:24:02;98651.34;;;22.92;88.11
14120;BME280;7138;49.246;9.100;2022-07-23T04:26:28;98662.22;;;22.85;88.45
14120;BME280;7138;49.246;9.100;2022-07-23T04:28:53;98667.72;;;22.81;88.48
14120;BME280;7138;49.246;9.100;2022-07-23T04:31:21;98679.19;;;22.80;88.32
14120;BME280;7138;49.246;9.100;2022-07-23T04:33:46;98685.06;;;22.68;89.07
14120;BME280;7138;49.246;9.100;2022-07-23T04:36:12;98692.16;;;22.67;89.04
14120;BME280;7138;49.246;9.100;2022-07-23T04:38:38;98705.34;;;22.67;89.49
14120;BME280;7138;49.246;9.100;2022-07-23T04:41:04;98698.47;;;22.63;89.53
14120;BME280;7138;49.246;9.100;2022-07-23T04:43:30;98710.50;;;22.69;89.70
14120;BME280;7138;49.246;9.100;2022-07-23T04:45:56;98725.47;;;22.68;89.29
14120;BME280;7138;49.246;9.100;2022-07-23T04:48:23;98712.09;;;22.73;89.28
14120;BME280;7138;49.246;9.100;2022-07-23T04:50:49;98699.28;;;22.82;88.83
14120;BME280;7138;49.246;9.100;2022-07-23T04:53:15;98690.44;;;22.83;88.77
14120;BME280;7138;49.246;9.100;2022-07-23T04:55:41;98703.72;;;22.82;88.57
14120;BME280;7138;49.246;9.100;2022-07-23T04:58:06;98716.81;;;22.83;88.31
14120;BME280;7138;49.246;9.100;2022-07-23T05:00:32;98712.84;;;22.75;88.17
14120;BME280;7138;49.246;9.100;2022-07-23T05:02:58;98735.66;;;22.76;88.63
14120;BME280;7138;49.246;9.100;2022-07-23T05:05:25;98740.44;;;22.68;89.11
14120;BME280;7138;49.246;9.100;2022-07-23T05:07:51;98738.81;;;22.65;89.04
14120;BME280;7138;49.246;9.100;2022-07-23T05:10:17;98741.44;;;22.65;88.46
14120;BME280;7138;49.246;9.100;2022-07-23T05:12:43;98727.41;;;22.65;88.80
14120;BME280;7138;49.246;9.100;2022-07-23T05:15:09;98715.56;;;22.73;88.18
14120;BME280;7138;49.246;9.100;2022-07-23T05:17:35;98695.88;;;22.80;88.03
14120;BME280;7138;49.246;9.100;2022-07-23T05:20:01;98710.91;;;22.96;88.16
14120;BME280;7138;49.246;9.100;2022-07-23T05:22:28;98716.28;;;22.94;87.77
14120;BME280;7138;49.246;9.100;2022-07-23T05:24:54;98738.31;;;22.93;88.17
14120;BME280;7138;49.246;9.100;2022-07-23T05:27:20;98746.81;;;22.98;87.86
14120;BME280;7138;49.246;9.100;2022-07-23T05:29:46;98744.28;;;22.97;87.21
14120;BME280;7138;49.246;9.100;2022-07-23T05:32:12;98751.81;;;23.04;87.21
14120;BME280;7138;49.246;9.100;2022-07-23T05:34:38;98768.50;;;23.05;86.66
14120;BME280;7138;49.246;9.100;2022-07-23T05:37:04;98777.34;;;23.04;88.24
14120;BME280;7138;49.246;9.100;2022-07-23T05:39:31;98775.31;;;23.09;88.98
14120;BME280;7138;49.246;9.100;2022-07-23T05:41:57;98781.53;;;23.08;89.04
14120;BME280;7138;49.246;9.100;2022-07-23T05:44:22;98786.19;;;23.03;88.79
14120;BME280;7138;49.246;9.100;2022-07-23T05:46:48;98789.69;;;23.03;89.67
14120;BME280;7138;49.246;9.100;2022-07-23T05:49:14;98795.03;;;23.02;89.10
14120;BME280;7138;49.246;9.100;2022-07-23T05:51:40;98793.50;;;22.98;89.38
14120;BME280;7138;49.246;9.100;2022-07-23T05:54:06;98782.53;;;23.05;90.38
14120;BME280;7138;49.246;9.100;2022-07-23T05:56:33;98789.13;;;23.14;90.08
14120;BME280;7138;49.246;9.100;2022-07-23T05:58:59;98802.81;;;23.22;89.34
14120;BME280;7138;49.246;9.100;2022-07-23T06:01:25;98808.88;;;23.24;88.79
14120;BME280;7138;49.246;9.100;2022-07-23T06:03:51;98794.44;;;23.31;89.70
14120;BME280;7138;49.246;9.100;2022-07-23T06:06:17;98785.22;;;23.39;89.40
14120;BME280;7138;49.246;9.100;2022-07-23T06:08:42;98783.19;;;23.45;88.91
14120;BME280;7138;49.246;9.100;2022-07-23T06:11:08;98789.13;;;23.50;89.45
14120;BME280;7138;49.246;9.100;2022-07-23T06:13:36;98787.09;;;23.55;89.09
14120;BME280;7138;49.246;9.100;2022-07-23T06:16:01;98787.00;;;23.56;88.80
14120;BME280;7138;49.246;9.100;2022-07-23T06:18:27;98772.81;;;23.59;88.62
14120;BME280;7138;49.246;9.100;2022-07-23T06:20:53;98770.81;;;23.62;88.74
14120;BME280;7138;49.246;9.100;2022-07-23T06:23:20;98770.59;;;23.67;89.03
14120;BME280;7138;49.246;9.100;2022-07-23T06:25:46;98765.84;;;23.73;89.26
14120;BME280;7138;49.246;9.100;2022-07-23T06:28:11;98761.94;;;23.80;88.59
14120;BME280;7138;49.246;9.100;2022-07-23T06:30:39;98756.09;;;23.91;88.14
14120;BME280;7138;49.246;9.100;2022-07-23T06:33:05;98763.59;;;23.99;87.43
14120;BME280;7138;49.246;9.100;2022-07-23T06:35:31;98757.75;;;24.09;88.37
14120;BME280;7138;49.246;9.100;2022-07-23T06:37:56;98749.34;;;24.18;88.50
14120;BME280;7138;49.246;9.100;2022-07-23T06:40:22;98745.28;;;24.28;88.26
14120;BME280;7138;49.246;9.100;2022-07-23T06:42:49;98744.06;;;24.34;88.16
14120;BME280;7138;49.246;9.100;2022-07-23T06:45:15;98752.94;;;24.48;87.10
14120;BME280;7138;49.246;9.100;2022-07-23T06:47:42;98757.53;;;24.61;85.92
14120;BME280;7138;49.246;9.100;2022-07-23T06:50:09;98771.16;;;24.69;84.47
14120;BME280;7138;49.246;9.100;2022-07-23T06:52:34;98785.00;;;24.74;84.61
14120;BME280;7138;49.246;9.100;2022-07-23T06:55:00;98788.06;;;24.66;84.21
14120;BME280;7138;49.246;9.100;2022-07-23T06:57:26;98799.59;;;24.65;84.83
14120;BME280;7138;49.246;9.100;2022-07-23T06:59:53;98802.50;;;24.61;84.85
14120;BME280;7138;49.246;9.100;2022-07-23T07:02:19;98808.06;;;24.56;85.32
14120;BME280;7138;49.246;9.100;2022-07-23T07:04:46;98808.97;;;24.55;85.20
14120;BME280;7138;49.246;9.100;2022-07-23T07:07:12;98804.09;;;24.47;85.33
14120;BME280;7138;49.246;9.100;2022-07-23T07:09:38;98805.47;;;24.39;85.12
14120;BME280;7138;49.246;9.100;2022-07-23T07:12:05;98814.50;;;24.35;85.63
14120;BME280;7138;49.246;9.100;2022-07-23T07:14:30;98824.66;;;24.42;86.37
14120;BME280;7138;49.246;9.100;2022-07-23T07:16:56;98831.41;;;24.48;86.46
14120;BME280;7138;49.246;9.100;2022-07-23T07:19:22;98841.75;;;24.53;85.53
14120;BME280;7138;49.246;9.100;2022-07-23T07:21:49;98840.59;;;24.41;85.01
14120;BME280;7138;49.246;9.100;2022-07-23T07:24:15;98836.84;;;24.45;85.22
14120;BME280;7138;49.246;9.100;2022-07-23T07:26:41;98824.91;;;24.54;85.71
14120;BME280;7138;49.246;9.100;2022-07-23T07:29:07;98813.59;;;24.52;85.49
14120;BME280;7138;49.246;9.100;2022-07-23T07:31:33;98809.06;;;24.54;85.21
14120;BME280;7138;49.246;9.100;2022-07-23T07:33:59;98816.75;;;24.58;85.76
14120;BME280;7138;49.246;9.100;2022-07-23T07:36:25;98817.94;;;24.68;84.89
14120;BME280;7138;49.246;9.100;2022-07-23T07:38:52;98820.16;;;24.76;85.10
14120;BME280;7138;49.246;9.100;2022-07-23T07:41:18;98825.19;;;24.80;84.64
14120;BME280;7138;49.246;9.100;2022-07-23T07:43:48;98834.34;;;24.90;84.60
14120;BME280;7138;49.246;9.100;2022-07-23T07:46:14;98835.88;;;25.10;84.21
14120;BME280;7138;49.246;9.100;2022-07-23T07:48:40;98836.81;;;25.39;83.59
14120;BME280;7138;49.246;9.100;2022-07-23T07:51:06;98833.81;;;25.75;82.72
14120;BME280;7138;49.246;9.100;2022-07-23T07:53:32;98832.63;;;26.08;80.01
14120;BME280;7138;49.246;9.100;2022-07-23T07:55:59;98826.69;;;26.47;81.97
14120;BME280;7138;49.246;9.100;2022-07-23T07:58:25;98837.66;;;26.84;79.96
14120;BME280;7138;49.246;9.100;2022-07-23T08:00:51;98839.50;;;27.23;76.96
14120;BME280;7138;49.246;9.100;2022-07-23T08:03:17;98843.44;;;27.56;76.06
14120;BME280;7138;49.246;9.100;2022-07-23T08:05:43;98842.75;;;27.92;76.59
14120;BME280;7138;49.246;9.100;2022-07-23T08:08:09;98836.50;;;28.18;74.11
14120;BME280;7138;49.246;9.100;2022-07-23T08:10:40;98849.13;;;28.40;73.14
14120;BME280;7138;49.246;9.100;2022-07-23T08:13:12;98848.81;;;28.45;70.91
14120;BME280;7138;49.246;9.100;2022-07-23T08:15:38;98851.16;;;28.49;71.78
14120;BME280;7138;49.246;9.100;2022-07-23T08:18:04;98847.31;;;28.41;71.83
14120;BME280;7138;49.246;9.100;2022-07-23T08:20:30;98850.34;;;28.24;71.98
14120;BME280;7138;49.246;9.100;2022-07-23T08:22:58;98847.56;;;28.12;72.75
14120;BME280;7138;49.246;9.100;2022-07-23T08:25:27;98859.16;;;28.11;72.57
14120;BME280;7138;49.246;9.100;2022-07-23T08:27:54;98854.34;;;28.04;73.29
14120;BME280;7138;49.246;9.100;2022-07-23T08:30:24;98853.69;;;28.00;73.41
14120;BME280;7138;49.246;9.100;2022-07-23T08:32:54;98855.66;;;28.11;73.89
14120;BME280;7138;49.246;9.100;2022-07-23T08:35:25;98862.09;;;27.94;72.93
14120;BME280;7138;49.246;9.100;2022-07-23T08:37:52;98851.25;;;27.72;72.84
14120;BME280;7138;49.246;9.100;2022-07-23T08:40:18;98862.81;;;27.71;74.28
14120;BME280;7138;49.246;9.100;2022-07-23T08:42:47;98860.56;;;27.65;73.45
14120;BME280;7138;49.246;9.100;2022-07-23T08:45:17;98855.97;;;27.54;73.01
14120;BME280;7138;49.246;9.100;2022-07-23T08:47:49;98856.75;;;27.69;74.71
14120;BME280;7138;49.246;9.100;2022-07-23T08:50:15;98856.97;;;27.91;75.13
14120;BME280;7138;49.246;9.100;2022-07-23T08:52:41;98847.34;;;28.15;74.05
14120;BME280;7138;49.246;9.100;2022-07-23T08:55:08;98853.59;;;28.40;71.78
14120;BME280;7138;49.246;9.100;2022-07-23T08:57:34;98859.84;;;28.64;73.23
14120;BME280;7138;49.246;9.100;2022-07-23T09:00:00;98847.97;;;28.93;73.19
14120;BME280;7138;49.246;9.100;2022-07-23T09:02:26;98858.41;;;29.20;70.78
14120;BME280;7138;49.246;9.100;2022-07-23T09:04:54;98848.38;;;29.36;69.31
14120;BME280;7138;49.246;9.100;2022-07-23T09:07:20;98849.66;;;29.54;68.44
14120;BME280;7138;49.246;9.100;2022-07-23T09:09:46;98861.19;;;29.66;69.52
14120;BME280;7138;49.246;9.100;2022-07-23T09:12:12;98853.91;;;29.68;69.10
14120;BME280;7138;49.246;9.100;2022-07-23T09:14:40;98847.81;;;29.90;69.11
14120;BME280;7138;49.246;9.100;2022-07-23T09:17:11;98844.59;;;30.08;68.88
14120;BME280;7138;49.246;9.100;2022-07-23T09:19:37;98843.97;;;30.16;66.61
14120;BME280;7138;49.246;9.100;2022-07-23T09:22:20;98834.91;;;30.29;65.98
14120;BME280;7138;49.246;9.100;2022-07-23T09:25:08;98838.56;;;30.51;66.72
14120;BME280;7138;49.246;9.100;2022-07-23T09:27:51;98840.72;;;30.68;65.46
14120;BME280;7138;49.246;9.100;2022-07-23T09:30:19;98834.28;;;30.81;65.05
14120;BME280;7138;49.246;9.100;2022-07-23T09:33:04;98846.44;;;30.97;65.73
14120;BME280;7138;49.246;9.100;2022-07-23T09:35:45;98846.53;;;30.95;63.53
14120;BME280;7138;49.246;9.100;2022-07-23T09:38:13;98832.91;;;31.09;63.41
14120;BME280;7138;49.246;9.100;2022-07-23T09:40:39;98842.09;;;31.16;64.48
14120;BME280;7138;49.246;9.100;2022-07-23T09:43:05;98835.84;;;31.38;62.61
14120;BME280;7138;49.246;9.100;2022-07-23T09:45:31;98844.16;;;31.56;62.78
14120;BME280;7138;49.246;9.100;2022-07-23T09:48:11;98847.19;;;31.83;63.83
14120;BME280;7138;49.246;9.100;2022-07-23T09:50:39;98849.06;;;32.03;61.61
14120;BME280;7138;49.246;9.100;2022-07-23T09:53:05;98845.13;;;32.07;61.30
14120;BME280;7138;49.246;9.100;2022-07-23T09:55:37;98853.44;;;31.93;60.46
14120;BME280;7138;49.246;9.100;2022-07-23T09:58:06;98851.22;;;31.98;61.40
14120;BME280;7138;49.246;9.100;2022-07-23T10:00:39;98842.91;;;32.12;61.15
14120;BME280;7138;49.246;9.100;2022-07-23T10:03:06;98847.78;;;32.28;61.86
14120;BME280;7138;49.246;9.100;2022-07-23T10:05:33;98838.16;;;32.25;60.19
14120;BME280;7138;49.246;9.100;2022-07-23T10:08:02;98832.09;;;32.23;61.64
14120;BME280;7138;49.246;9.100;2022-07-23T10:10:31;98842.75;;;32.44;60.75
14120;BME280;7138;49.246;9.100;2022-07-23T10:12:57;98846.66;;;32.30;59.76
14120;BME280;7138;49.246;9.100;2022-07-23T10:15:26;98844.94;;;32.29;61.19
14120;BME280;7138;49.246;9.100;2022-07-23T10:17:52;98844.84;;;32.31;59.63
14120;BME280;7138;49.246;9.100;2022-07-23T10:20:18;98843.63;;;32.44;61.34
14120;BME280;7138;49.246;9.100;2022-07-23T10:22:58;98843.88;;;32.72;62.70
14120;BME280;7138;49.246;9.100;2022-07-23T10:25:36;98844.34;;;32.86;62.49
14120;BME280;7138;49.246;9.100;2022-07-23T10:31:10;98846.47;;;32.83;58.29
14120;BME280;7138;49.246;9.100;2022-07-23T10:33:54;98852.22;;;32.78;58.65
14120;BME280;7138;49.246;9.100;2022-07-23T10:36:29;98842.22;;;32.71;59.72
14120;BME280;7138;49.246;9.100;2022-07-23T10:39:05;98845.44;;;32.74;58.72
14120;BME280;7138;49.246;9.100;2022-07-23T10:41:37;98849.84;;;32.85;61.44
14120;BME280;7138;49.246;9.100;2022-07-23T10:44:09;98842.84;;;33.03;61.41
14120;BME280;7138;49.246;9.100;2022-07-23T10:46:35;98846.69;;;33.10;59.32
14120;BME280;7138;49.246;9.100;2022-07-23T10:49:27;98844.03;;;33.10;58.97
14120;BME280;7138;49.246;9.100;2022-07-23T10:52:23;98836.53;;;33.23;57.73
14120;BME280;7138;49.246;9.100;2022-07-23T10:54:52;98844.88;;;33.30;58.79
14120;BME280;7138;49.246;9.100;2022-07-23T10:57:21;98843.06;;;33.40;57.22
14120;BME280;7138;49.246;9.100;2022-07-23T11:00:20;98838.94;;;33.36;56.69
14120;BME280;7138;49.246;9.100;2022-07-23T11:02:49;98850.25;;;33.49;58.78
14120;BME280;7138;49.246;9.100;2022-07-23T11:05:17;98847.56;;;33.49;57.08
14120;BME280;7138;49.246;9.100;2022-07-23T11:08:18;98846.31;;;33.43;56.39
14120;BME280;7138;49.246;9.100;2022-07-23T11:10:51;98842.47;;;33.36;56.78
14120;BME280;7138;49.246;9.100;2022-07-23T11:13:46;98838.66;;;33.48;58.32
14120;BME280;7138;49.246;9.100;2022-07-23T11:16:20;98829.59;;;33.11;55.71
14120;BME280;7138;49.246;9.100;2022-07-23T11:19:04;98842.19;;;33.20;57.76
14120;BME280;7138;49.246;9.100;2022-07-23T11:21:50;98855.03;;;33.26;56.08
14120;BME280;7138;49.246;9.100;2022-07-23T11:24:22;98845.28;;;33.44;57.17
14120;BME280;7138;49.246;9.100;2022-07-23T11:27:01;98844.44;;;33.53;55.37
14120;BME280;7138;49.246;9.100;2022-07-23T11:29:50;98843.09;;;33.59;55.93
14120;BME280;7138;49.246;9.100;2022-07-23T11:32:36;98850.38;;;33.57;53.59
14120;BME280;7138;49.246;9.100;2022-07-23T11:35:23;98840.38;;;33.49;54.40
14120;BME280;7138;49.246;9.100;2022-07-23T11:37:52;98845.31;;;33.54;57.41
14120;BME280;7138;49.246;9.100;2022-07-23T11:40:20;98843.91;;;33.40;55.53
14120;BME280;7138;49.246;9.100;2022-07-23T11:42:55;98844.88;;;33.30;55.80
14120;BME280;7138;49.246;9.100;2022-07-23T11:45:31;98832.88;;;33.24;56.00
14120;BME280;7138;49.246;9.100;2022-07-23T11:47:57;98842.03;;;33.12;56.24
14120;BME280;7138;49.246;9.100;2022-07-23T11:50:25;98839.09;;;33.15;56.89
14120;BME280;7138;49.246;9.100;2022-07-23T11:52:52;98831.59;;;33.09;56.61
14120;BME280;7138;49.246;9.100;2022-07-23T11:55:18;98836.78;;;33.01;56.00
14120;BME280;7138;49.246;9.100;2022-07-23T11:57:45;98824.66;;;33.07;58.07
14120;BME280;7138;49.246;9.100;2022-07-23T12:00:14;98826.34;;;32.98;56.24
14120;BME280;7138;49.246;9.100;2022-07-23T12:02:46;98830.41;;;33.02;57.09
14120;BME280;7138;49.246;9.100;2022-07-23T12:05:14;98831.31;;;33.12;58.21
14120;BME280;7138;49.246;9.100;2022-07-23T12:07:42;98825.78;;;33.14;56.79
14120;BME280;7138;49.246;9.100;2022-07-23T12:10:14;98820.25;;;33.06;58.39
14120;BME280;7138;49.246;9.100;2022-07-23T12:12:43;98825.06;;;33.02;56.85
14120;BME280;7138;49.246;9.100;2022-07-23T12:15:11;98822.13;;;33.15;57.70
14120;BME280;7138;49.246;9.100;2022-07-23T12:17:40;98824.69;;;33.16;57.38
14120;BME280;7138;49.246;9.100;2022-07-23T12:20:12;98820.59;;;33.22;57.80
14120;BME280;7138;49.246;9.100;2022-07-23T12:22:41;98813.75;;;32.98;58.04
14120;BME280;7138;49.246;9.100;2022-07-23T12:25:11;98808.84;;;33.04;58.70
14120;BME280;7138;49.246;9.100;2022-07-23T12:27:38;98805.19;;;33.14;57.81
14120;BME280;7138;49.246;9.100;2022-07-23T12:30:24;98795.88;;;33.09;56.86
14120;BME280;7138;49.246;9.100;2022-07-23T12:32:53;98804.06;;;33.07;58.29
14120;BME280;7138;49.246;9.100;2022-07-23T12:35:22;98794.00;;;32.99;56.72
14120;BME280;7138;49.246;9.100;2022-07-23T12:37:51;98803.88;;;32.99;57.99
14120;BME280;7138;49.246;9.100;2022-07-23T12:40:30;98804.03;;;32.97;57.49
14120;BME280;7138;49.246;9.100;2022-07-23T12:42:58;98807.09;;;32.74;57.39
14120;BME280;7138;49.246;9.100;2022-07-23T12:45:26;98802.41;;;32.66;59.37
14120;BME280;7138;49.246;9.100;2022-07-23T12:48:03;98802.03;;;32.71;59.00
14120;BME280;7138;49.246;9.100;2022-07-23T12:50:42;98791.31;;;32.71;57.32
14120;BME280;7138;49.246;9.100;2022-07-23T12:53:12;98798.63;;;32.78;58.37
14120;BME280;7138;49.246;9.100;2022-07-23T12:55:39;98791.72;;;32.76;58.52
14120;BME280;7138;49.246;9.100;2022-07-23T12:58:12;98800.03;;;32.73;56.20
14120;BME280;7138;49.246;9.100;2022-07-23T13:01:04;98808.50;;;32.78;57.40
14120;BME280;7138;49.246;9.100;2022-07-23T13:03:34;98811.91;;;32.80;58.17
14120;BME280;7138;49.246;9.100;2022-07-23T13:06:06;98803.03;;;32.89;57.72
14120;BME280;7138;49.246;9.100;2022-07-23T13:08:35;98810.94;;;33.00;57.55
14120;BME280;7138;49.246;9.100;2022-07-23T13:11:02;98806.28;;;33.02;57.21
14120;BME280;7138;49.246;9.100;2022-07-23T13:13:31;98803.59;;;33.02;57.06
14120;BME280;7138;49.246;9.100;2022-07-23T13:15:58;98811.84;;;33.10;56.34
14120;BME280;7138;49.246;9.100;2022-07-23T13:18:26;98812.69;;;33.20;56.41